sensor_id;sensor_type;location;lat;lon;timestamp;pressure;altitude;pressure_sealevel;temperature;humidity
70437;BME280;57877;39.750;-104.894;2023-05-11T00:00:48;83354.95;;;14.00;48.09
70437;BME280;57877;39.750;-104.894;2023-05-11T00:03:13;83357.12;;;14.41;47.31
70437;BME280;57877;39.750;-104.894;2023-05-11T00:05:38;83356.29;;;14.04;47.47
70437;BME280;57877;39.750;-104.894;2023-05-11T00:08:03;83347.34;;;14.50;46.53
70437;BME280;57877;39.750;-104.894;2023-05-11T00:10:29;83339.64;;;14.40;46.16
70437;BME280;57877;39.750;-104.894;2023-05-11T00:12:53;83340.58;;;14.56;46.47
70437;BME280;57877;39.750;-104.894;2023-05-11T00:15:19;83341.88;;;14.15;46.62
70437;BME280;57877;39.750;-104.894;2023-05-11T00:17:44;83349.43;;;14.40;47.47
70437;BME280;57877;39.750;-104.894;2023-05-11T00:20:09;83355.57;;;14.21;46.95
70437;BME280;57877;39.750;-104.894;2023-05-11T00:22:34;83359.59;;;14.25;46.79
70437;BME280;57877;39.750;-104.894;2023-05-11T00:24:59;83361.11;;;14.60;46.22
70437;BME280;57877;39.750;-104.894;2023-05-11T00:27:24;83363.44;;;13.94;47.44
70437;BME280;57877;39.750;-104.894;2023-05-11T00:29:49;83363.37;;;13.34;49.25
70437;BME280;57877;39.750;-104.894;2023-05-11T00:32:14;83365.73;;;13.08;51.07
70437;BME280;57877;39.750;-104.894;2023-05-11T00:34:39;83361.47;;;12.18;54.48
70437;BME280;57877;39.750;-104.894;2023-05-11T00:37:04;83354.86;;;12.45;52.90
70437;BME280;57877;39.750;-104.894;2023-05-11T00:39:29;83351.23;;;12.74;52.88
70437;BME280;57877;39.750;-104.894;2023-05-11T00:41:54;83346.47;;;12.89;52.81
70437;BME280;57877;39.750;-104.894;2023-05-11T00:44:19;83338.63;;;13.14;52.39
70437;BME280;57877;39.750;-104.894;2023-05-11T00:46:44;83328.10;;;13.26;52.07
70437;BME280;57877;39.750;-104.894;2023-05-11T00:49:09;83320.17;;;13.66;51.29
70437;BME280;57877;39.750;-104.894;2023-05-11T00:51:35;83323.78;;;13.95;51.56
70437;BME280;57877;39.750;-104.894;2023-05-11T00:53:59;83316.14;;;13.61;51.51
70437;BME280;57877;39.750;-104.894;2023-05-11T00:56:24;83298.70;;;13.31;51.10
70437;BME280;57877;39.750;-104.894;2023-05-11T00:58:49;83252.04;;;12.60;53.00
70437;BME280;57877;39.750;-104.894;2023-05-11T01:01:14;83215.16;;;12.08;55.19
70437;BME280;57877;39.750;-104.894;2023-05-11T01:03:39;83209.12;;;11.56;56.51
70437;BME280;57877;39.750;-104.894;2023-05-11T01:06:09;83206.78;;;12.12;55.77
70437;BME280;57877;39.750;-104.894;2023-05-11T01:08:39;83212.66;;;12.35;55.77
70437;BME280;57877;39.750;-104.894;2023-05-11T01:11:01;83224.17;;;11.89;56.41
70437;BME280;57877;39.750;-104.894;2023-05-11T01:13:26;83234.46;;;11.96;56.27
70437;BME280;57877;39.750;-104.894;2023-05-11T01:15:49;83241.57;;;12.46;55.20
70437;BME280;57877;39.750;-104.894;2023-05-11T01:18:14;83247.36;;;12.47;55.08
70437;BME280;57877;39.750;-104.894;2023-05-11T01:20:35;83251.78;;;12.26;54.76
70437;BME280;57877;39.750;-104.894;2023-05-11T01:23:09;83263.76;;;12.13;55.08
70437;BME280;57877;39.750;-104.894;2023-05-11T01:25:41;83278.73;;;12.67;55.26
70437;BME280;57877;39.750;-104.894;2023-05-11T01:32:42;83299.56;;;12.76;53.47
70437;BME280;57877;39.750;-104.894;2023-05-11T01:35:10;83297.14;;;12.54;53.42
70437;BME280;57877;39.750;-104.894;2023-05-11T01:37:32;83298.26;;;13.25;52.08
70437;BME280;57877;39.750;-104.894;2023-05-11T01:39:58;83301.59;;;13.63;51.60
70437;BME280;57877;39.750;-104.894;2023-05-11T01:42:29;83307.83;;;13.64;51.16
70437;BME280;57877;39.750;-104.894;2023-05-11T01:44:49;83315.92;;;13.24;50.96
70437;BME280;57877;39.750;-104.894;2023-05-11T01:47:13;83320.16;;;13.05;52.20
70437;BME280;57877;39.750;-104.894;2023-05-11T01:49:38;83325.00;;;13.45;50.62
70437;BME280;57877;39.750;-104.894;2023-05-11T01:52:04;83327.28;;;13.68;50.41
70437;BME280;57877;39.750;-104.894;2023-05-11T01:54:28;83335.85;;;13.55;49.93
70437;BME280;57877;39.750;-104.894;2023-05-11T01:56:52;83336.50;;;13.39;50.00
70437;BME280;57877;39.750;-104.894;2023-05-11T01:59:17;83339.79;;;13.31;49.22
70437;BME280;57877;39.750;-104.894;2023-05-11T02:01:42;83342.79;;;13.70;49.30
70437;BME280;57877;39.750;-104.894;2023-05-11T02:04:08;83345.50;;;13.62;49.27
70437;BME280;57877;39.750;-104.894;2023-05-11T02:06:34;83353.20;;;13.93;49.10
70437;BME280;57877;39.750;-104.894;2023-05-11T02:08:58;83364.09;;;13.89;48.85
70437;BME280;57877;39.750;-104.894;2023-05-11T02:11:24;83379.28;;;13.92;48.06
70437;BME280;57877;39.750;-104.894;2023-05-11T02:13:48;83384.97;;;13.87;47.65
70437;BME280;57877;39.750;-104.894;2023-05-11T02:16:14;83384.56;;;13.94;47.95
70437;BME280;57877;39.750;-104.894;2023-05-11T02:18:39;83389.40;;;13.84;47.73
70437;BME280;57877;39.750;-104.894;2023-05-11T02:21:03;83401.43;;;13.82;47.82
70437;BME280;57877;39.750;-104.894;2023-05-11T02:23:30;83406.79;;;13.67;48.10
70437;BME280;57877;39.750;-104.894;2023-05-11T02:25:53;83409.92;;;13.62;48.04
70437;BME280;57877;39.750;-104.894;2023-05-11T02:28:18;83415.73;;;13.78;48.54
70437;BME280;57877;39.750;-104.894;2023-05-11T02:30:46;83419.59;;;13.46;48.98
70437;BME280;57877;39.750;-104.894;2023-05-11T02:33:08;83421.82;;;13.95;49.22
70437;BME280;57877;39.750;-104.894;2023-05-11T02:35:36;83411.62;;;13.67;49.77
70437;BME280;57877;39.750;-104.894;2023-05-11T02:38:00;83399.97;;;13.76;50.27
70437;BME280;57877;39.750;-104.894;2023-05-11T02:40:27;83391.55;;;13.47;52.02
70437;BME280;57877;39.750;-104.894;2023-05-11T02:42:52;83383.66;;;12.40;54.00
70437;BME280;57877;39.750;-104.894;2023-05-11T02:45:15;83383.01;;;13.14;53.77
70437;BME280;57877;39.750;-104.894;2023-05-11T02:47:41;83395.76;;;13.51;52.39
70437;BME280;57877;39.750;-104.894;2023-05-11T02:50:04;83403.93;;;13.38;52.11
70437;BME280;57877;39.750;-104.894;2023-05-11T02:52:29;83418.44;;;13.30;51.26
70437;BME280;57877;39.750;-104.894;2023-05-11T02:54:53;83436.34;;;13.49;50.89
70437;BME280;57877;39.750;-104.894;2023-05-11T02:57:18;83449.55;;;13.64;50.74
70437;BME280;57877;39.750;-104.894;2023-05-11T02:59:44;83460.52;;;13.93;50.72
70437;BME280;57877;39.750;-104.894;2023-05-11T03:02:08;83469.09;;;13.55;50.44
70437;BME280;57877;39.750;-104.894;2023-05-11T03:04:34;83481.08;;;13.28;50.77
70437;BME280;57877;39.750;-104.894;2023-05-11T03:06:58;83494.04;;;12.87;51.32
70437;BME280;57877;39.750;-104.894;2023-05-11T03:09:23;83499.93;;;13.57;51.09
70437;BME280;57877;39.750;-104.894;2023-05-11T03:11:50;83504.14;;;13.27;50.82
70437;BME280;57877;39.750;-104.894;2023-05-11T03:14:15;83499.99;;;13.44;50.43
70437;BME280;57877;39.750;-104.894;2023-05-11T03:16:40;83502.72;;;13.48;50.24
70437;BME280;57877;39.750;-104.894;2023-05-11T03:19:05;83512.49;;;13.65;50.23
70437;BME280;57877;39.750;-104.894;2023-05-11T03:21:30;83516.46;;;12.52;49.57
70437;BME280;57877;39.750;-104.894;2023-05-11T03:23:55;83524.20;;;12.86;49.32
70437;BME280;57877;39.750;-104.894;2023-05-11T03:26:20;83523.16;;;11.67;49.80
70437;BME280;57877;39.750;-104.894;2023-05-11T03:28:46;83522.20;;;12.74;49.73
70437;BME280;57877;39.750;-104.894;2023-05-11T03:31:10;83520.73;;;12.37;49.52
70437;BME280;57877;39.750;-104.894;2023-05-11T03:33:35;83502.34;;;11.82;50.57
70437;BME280;57877;39.750;-104.894;2023-05-11T03:36:00;83492.01;;;11.86;50.57
70437;BME280;57877;39.750;-104.894;2023-05-11T03:38:27;83494.40;;;12.38;50.66
70437;BME280;57877;39.750;-104.894;2023-05-11T03:40:52;83497.62;;;12.15;50.23
70437;BME280;57877;39.750;-104.894;2023-05-11T03:43:18;83495.75;;;12.46;49.86
70437;BME280;57877;39.750;-104.894;2023-05-11T03:45:42;83493.06;;;12.64;49.15
70437;BME280;57877;39.750;-104.894;2023-05-11T03:48:06;83490.13;;;12.08;49.29
70437;BME280;57877;39.750;-104.894;2023-05-11T03:50:31;83493.86;;;11.90;50.19
70437;BME280;57877;39.750;-104.894;2023-05-11T03:52:55;83501.20;;;10.69;52.39
70437;BME280;57877;39.750;-104.894;2023-05-11T03:55:21;83502.92;;;9.91;53.57
70437;BME280;57877;39.750;-104.894;2023-05-11T03:57:46;83503.92;;;9.89;55.40
70437;BME280;57877;39.750;-104.894;2023-05-11T04:00:11;83503.58;;;10.69;54.48
70437;BME280;57877;39.750;-104.894;2023-05-11T04:02:36;83509.79;;;10.03;55.24
70437;BME280;57877;39.750;-104.894;2023-05-11T04:05:05;83507.14;;;11.27;52.55
70437;BME280;57877;39.750;-104.894;2023-05-11T04:07:26;83505.77;;;11.53;51.86
70437;BME280;57877;39.750;-104.894;2023-05-11T04:09:51;83508.38;;;11.97;51.30
70437;BME280;57877;39.750;-104.894;2023-05-11T04:12:16;83502.06;;;11.26;51.93
70437;BME280;57877;39.750;-104.894;2023-05-11T04:14:41;83505.09;;;11.67;51.87
70437;BME280;57877;39.750;-104.894;2023-05-11T04:17:06;83511.27;;;12.00;51.03
70437;BME280;57877;39.750;-104.894;2023-05-11T04:19:31;83515.85;;;11.94;51.19
70437;BME280;57877;39.750;-104.894;2023-05-11T04:21:56;83514.64;;;12.33;50.94
70437;BME280;57877;39.750;-104.894;2023-05-11T04:24:21;83513.06;;;12.03;51.16
70437;BME280;57877;39.750;-104.894;2023-05-11T04:26:46;83510.41;;;11.98;51.91
70437;BME280;57877;39.750;-104.894;2023-05-11T04:29:11;83504.21;;;11.35;52.63
70437;BME280;57877;39.750;-104.894;2023-05-11T04:31:37;83509.71;;;10.87;53.41
70437;BME280;57877;39.750;-104.894;2023-05-11T04:34:05;83507.95;;;10.62;53.67
70437;BME280;57877;39.750;-104.894;2023-05-11T04:36:27;83500.19;;;10.61;54.97
70437;BME280;57877;39.750;-104.894;2023-05-11T04:38:52;83489.11;;;10.17;56.11
70437;BME280;57877;39.750;-104.894;2023-05-11T04:41:18;83486.03;;;8.62;60.19
70437;BME280;57877;39.750;-104.894;2023-05-11T04:43:43;83485.38;;;9.42;58.18
70437;BME280;57877;39.750;-104.894;2023-05-11T04:46:09;83483.67;;;10.32;57.18
70437;BME280;57877;39.750;-104.894;2023-05-11T04:48:33;83475.84;;;10.25;56.45
70437;BME280;57877;39.750;-104.894;2023-05-11T04:51:02;83470.62;;;9.69;57.29
70437;BME280;57877;39.750;-104.894;2023-05-11T04:53:23;83465.75;;;10.33;57.34
70437;BME280;57877;39.750;-104.894;2023-05-11T04:55:49;83462.72;;;9.58;58.22
70437;BME280;57877;39.750;-104.894;2023-05-11T04:58:13;83459.62;;;10.36;55.89
70437;BME280;57877;39.750;-104.894;2023-05-11T05:00:38;83463.99;;;10.28;55.35
70437;BME280;57877;39.750;-104.894;2023-05-11T05:03:04;83467.22;;;9.77;56.14
70437;BME280;57877;39.750;-104.894;2023-05-11T05:05:28;83462.62;;;10.52;55.08
70437;BME280;57877;39.750;-104.894;2023-05-11T05:07:54;83458.98;;;10.13;55.75
70437;BME280;57877;39.750;-104.894;2023-05-11T05:10:19;83456.15;;;9.10;57.93
70437;BME280;57877;39.750;-104.894;2023-05-11T05:12:44;83453.78;;;10.37;55.87
70437;BME280;57877;39.750;-104.894;2023-05-11T05:15:09;83447.65;;;9.88;55.55
70437;BME280;57877;39.750;-104.894;2023-05-11T05:17:34;83440.97;;;9.82;56.06
70437;BME280;57877;39.750;-104.894;2023-05-11T05:19:59;83442.22;;;9.86;55.80
70437;BME280;57877;39.750;-104.894;2023-05-11T05:22:24;83444.85;;;10.49;54.77
70437;BME280;57877;39.750;-104.894;2023-05-11T05:24:49;83446.21;;;10.46;54.04
70437;BME280;57877;39.750;-104.894;2023-05-11T05:27:14;83449.33;;;10.63;53.79
70437;BME280;57877;39.750;-104.894;2023-05-11T05:29:40;83447.84;;;10.65;54.01
70437;BME280;57877;39.750;-104.894;2023-05-11T05:32:05;83442.91;;;10.59;54.57
70437;BME280;57877;39.750;-104.894;2023-05-11T05:34:31;83436.52;;;9.94;55.41
70437;BME280;57877;39.750;-104.894;2023-05-11T05:36:56;83434.30;;;9.80;56.02
70437;BME280;57877;39.750;-104.894;2023-05-11T05:39:22;83443.79;;;10.28;55.55
70437;BME280;57877;39.750;-104.894;2023-05-11T05:41:47;83459.43;;;10.31;54.86
70437;BME280;57877;39.750;-104.894;2023-05-11T05:44:12;83472.95;;;10.76;54.08
70437;BME280;57877;39.750;-104.894;2023-05-11T05:46:37;83481.44;;;11.14;52.85
70437;BME280;57877;39.750;-104.894;2023-05-11T05:49:02;83483.27;;;11.16;52.75
70437;BME280;57877;39.750;-104.894;2023-05-11T05:51:27;83484.67;;;11.73;52.06
70437;BME280;57877;39.750;-104.894;2023-05-11T05:53:52;83484.92;;;11.19;52.19
70437;BME280;57877;39.750;-104.894;2023-05-11T05:56:17;83485.48;;;11.11;52.38
70437;BME280;57877;39.750;-104.894;2023-05-11T05:58:42;83484.85;;;10.78;53.00
70437;BME280;57877;39.750;-104.894;2023-05-11T06:01:08;83495.49;;;10.93;52.87
70437;BME280;57877;39.750;-104.894;2023-05-11T06:03:32;83512.14;;;11.20;52.71
70437;BME280;57877;39.750;-104.894;2023-05-11T06:05:57;83528.19;;;10.46;53.66
70437;BME280;57877;39.750;-104.894;2023-05-11T06:08:22;83542.10;;;10.64;53.65
70437;BME280;57877;39.750;-104.894;2023-05-11T06:10:47;83547.63;;;9.70;56.10
70437;BME280;57877;39.750;-104.894;2023-05-11T06:13:13;83548.97;;;9.74;56.92
70437;BME280;57877;39.750;-104.894;2023-05-11T06:15:37;83554.69;;;9.92;56.52
70437;BME280;57877;39.750;-104.894;2023-05-11T06:18:02;83556.48;;;9.78;57.18
70437;BME280;57877;39.750;-104.894;2023-05-11T06:20:28;83552.26;;;9.61;58.19
70437;BME280;57877;39.750;-104.894;2023-05-11T06:22:52;83550.48;;;9.68;57.85
70437;BME280;57877;39.750;-104.894;2023-05-11T06:25:17;83549.95;;;9.50;58.71
70437;BME280;57877;39.750;-104.894;2023-05-11T06:27:42;83545.57;;;9.32;58.96
70437;BME280;57877;39.750;-104.894;2023-05-11T06:30:08;83546.12;;;9.44;59.22
70437;BME280;57877;39.750;-104.894;2023-05-11T06:32:33;83541.88;;;8.89;59.81
70437;BME280;57877;39.750;-104.894;2023-05-11T06:34:57;83520.53;;;9.25;58.96
70437;BME280;57877;39.750;-104.894;2023-05-11T06:37:22;83505.17;;;9.39;58.03
70437;BME280;57877;39.750;-104.894;2023-05-11T06:39:48;83506.76;;;9.48;57.22
70437;BME280;57877;39.750;-104.894;2023-05-11T06:42:14;83486.69;;;10.09;56.34
70437;BME280;57877;39.750;-104.894;2023-05-11T06:44:40;83461.24;;;9.30;56.57
70437;BME280;57877;39.750;-104.894;2023-05-11T06:47:07;83438.17;;;10.10;55.88
70437;BME280;57877;39.750;-104.894;2023-05-11T06:49:31;83411.35;;;9.10;59.65
70437;BME280;57877;39.750;-104.894;2023-05-11T06:51:57;83375.53;;;8.43;62.38
70437;BME280;57877;39.750;-104.894;2023-05-11T06:54:23;83339.75;;;7.64;64.32
70437;BME280;57877;39.750;-104.894;2023-05-11T06:56:48;83337.95;;;7.67;65.21
70437;BME280;57877;39.750;-104.894;2023-05-11T06:59:14;83337.37;;;7.90;65.69
70437;BME280;57877;39.750;-104.894;2023-05-11T07:01:40;83315.45;;;8.24;63.56
70437;BME280;57877;39.750;-104.894;2023-05-11T07:04:05;83298.68;;;7.44;66.19
70437;BME280;57877;39.750;-104.894;2023-05-11T07:06:31;83275.87;;;7.58;66.00
70437;BME280;57877;39.750;-104.894;2023-05-11T07:08:56;83273.55;;;7.53;65.84
70437;BME280;57877;39.750;-104.894;2023-05-11T07:11:21;83326.41;;;8.60;62.72
70437;BME280;57877;39.750;-104.894;2023-05-11T07:13:46;83334.28;;;9.21;59.34
70437;BME280;57877;39.750;-104.894;2023-05-11T07:16:11;83328.19;;;9.62;57.90
70437;BME280;57877;39.750;-104.894;2023-05-11T07:18:36;83336.45;;;9.89;57.22
70437;BME280;57877;39.750;-104.894;2023-05-11T07:21:01;83345.36;;;10.22;56.44
70437;BME280;57877;39.750;-104.894;2023-05-11T07:23:26;83353.09;;;10.07;55.97
70437;BME280;57877;39.750;-104.894;2023-05-11T07:25:51;83359.93;;;10.57;55.43
70437;BME280;57877;39.750;-104.894;2023-05-11T07:28:16;83385.38;;;10.13;55.15
70437;BME280;57877;39.750;-104.894;2023-05-11T07:30:41;83411.52;;;9.75;55.73
70437;BME280;57877;39.750;-104.894;2023-05-11T07:33:06;83426.55;;;10.08;55.56
70437;BME280;57877;39.750;-104.894;2023-05-11T07:35:32;83429.23;;;9.56;56.05
70437;BME280;57877;39.750;-104.894;2023-05-11T07:37:57;83428.22;;;9.96;56.06
70437;BME280;57877;39.750;-104.894;2023-05-11T07:40:22;83429.91;;;10.13;55.57
70437;BME280;57877;39.750;-104.894;2023-05-11T07:42:47;83426.66;;;9.84;56.04
70437;BME280;57877;39.750;-104.894;2023-05-11T07:45:12;83424.22;;;9.91;55.62
70437;BME280;57877;39.750;-104.894;2023-05-11T07:47:37;83413.79;;;9.98;55.41
70437;BME280;57877;39.750;-104.894;2023-05-11T07:50:02;83397.28;;;9.87;54.69
70437;BME280;57877;39.750;-104.894;2023-05-11T07:52:27;83361.78;;;10.46;54.39
70437;BME280;57877;39.750;-104.894;2023-05-11T07:54:52;83313.34;;;8.54;60.22
70437;BME280;57877;39.750;-104.894;2023-05-11T07:57:19;83272.88;;;8.10;62.70
70437;BME280;57877;39.750;-104.894;2023-05-11T07:59:42;83265.10;;;7.21;65.46
70437;BME280;57877;39.750;-104.894;2023-05-11T08:02:08;83281.89;;;7.50;65.16
70437;BME280;57877;39.750;-104.894;2023-05-11T08:04:33;83237.51;;;7.00;65.20
70437;BME280;57877;39.750;-104.894;2023-05-11T08:06:58;83161.65;;;5.74;68.99
70437;BME280;57877;39.750;-104.894;2023-05-11T08:09:23;83100.36;;;5.22;71.72
70437;BME280;57877;39.750;-104.894;2023-05-11T08:11:48;83142.23;;;6.05;69.52
70437;BME280;57877;39.750;-104.894;2023-05-11T08:14:14;83257.38;;;7.98;64.06
70437;BME280;57877;39.750;-104.894;2023-05-11T08:16:39;83290.80;;;8.11;62.09
70437;BME280;57877;39.750;-104.894;2023-05-11T08:19:04;83274.75;;;8.36;61.10
70437;BME280;57877;39.750;-104.894;2023-05-11T08:21:29;83274.59;;;8.89;58.83
70437;BME280;57877;39.750;-104.894;2023-05-11T08:23:54;83285.28;;;8.91;58.25
70437;BME280;57877;39.750;-104.894;2023-05-11T08:26:19;83276.65;;;9.14;57.49
70437;BME280;57877;39.750;-104.894;2023-05-11T08:28:44;83255.25;;;9.01;56.91
70437;BME280;57877;39.750;-104.894;2023-05-11T08:31:09;83248.41;;;9.35;56.83
70437;BME280;57877;39.750;-104.894;2023-05-11T08:33:34;83243.60;;;9.52;55.50
70437;BME280;57877;39.750;-104.894;2023-05-11T08:35:59;83239.84;;;9.75;55.34
70437;BME280;57877;39.750;-104.894;2023-05-11T08:38:24;83241.42;;;10.16;54.45
70437;BME280;57877;39.750;-104.894;2023-05-11T08:40:51;83233.75;;;10.11;53.43
70437;BME280;57877;39.750;-104.894;2023-05-11T08:43:15;83226.59;;;10.09;53.65
70437;BME280;57877;39.750;-104.894;2023-05-11T08:45:41;83222.61;;;10.13;53.37
70437;BME280;57877;39.750;-104.894;2023-05-11T08:48:05;83213.40;;;10.25;53.15
70437;BME280;57877;39.750;-104.894;2023-05-11T08:50:30;83201.28;;;9.91;53.57
70437;BME280;57877;39.750;-104.894;2023-05-11T08:52:55;83199.13;;;10.02;53.27
70437;BME280;57877;39.750;-104.894;2023-05-11T08:55:22;83201.92;;;10.11;53.08
70437;BME280;57877;39.750;-104.894;2023-05-11T08:57:45;83207.57;;;9.89;53.43
70437;BME280;57877;39.750;-104.894;2023-05-11T09:00:11;83220.81;;;10.08;53.01
70437;BME280;57877;39.750;-104.894;2023-05-11T09:02:36;83241.07;;;10.38;52.76
70437;BME280;57877;39.750;-104.894;2023-05-11T09:05:01;83249.25;;;10.15;53.14
70437;BME280;57877;39.750;-104.894;2023-05-11T09:07:26;83250.57;;;10.27;53.14
70437;BME280;57877;39.750;-104.894;2023-05-11T09:09:51;83247.24;;;9.91;52.97
70437;BME280;57877;39.750;-104.894;2023-05-11T09:12:16;83252.53;;;9.91;52.99
70437;BME280;57877;39.750;-104.894;2023-05-11T09:14:41;83274.84;;;10.00;52.93
70437;BME280;57877;39.750;-104.894;2023-05-11T09:17:06;83285.12;;;10.03;52.69
70437;BME280;57877;39.750;-104.894;2023-05-11T09:19:31;83278.31;;;9.76;53.05
70437;BME280;57877;39.750;-104.894;2023-05-11T09:21:57;83273.00;;;9.84;53.03
70437;BME280;57877;39.750;-104.894;2023-05-11T09:24:21;83265.42;;;10.30;52.84
70437;BME280;57877;39.750;-104.894;2023-05-11T09:26:46;83258.41;;;10.13;52.63
70437;BME280;57877;39.750;-104.894;2023-05-11T09:29:11;83246.52;;;9.98;52.81
70437;BME280;57877;39.750;-104.894;2023-05-11T09:31:38;83235.33;;;9.92;53.00
70437;BME280;57877;39.750;-104.894;2023-05-11T09:36:27;83232.00;;;9.64;54.20
70437;BME280;57877;39.750;-104.894;2023-05-11T09:38:52;83232.63;;;9.65;54.02
70437;BME280;57877;39.750;-104.894;2023-05-11T09:41:19;83230.47;;;9.84;53.37
70437;BME280;57877;39.750;-104.894;2023-05-11T09:43:42;83230.27;;;10.10;52.91
70437;BME280;57877;39.750;-104.894;2023-05-11T09:46:07;83231.51;;;10.20;52.81
70437;BME280;57877;39.750;-104.894;2023-05-11T09:48:33;83230.51;;;10.23;52.97
70437;BME280;57877;39.750;-104.894;2023-05-11T09:51:01;83228.00;;;10.28;51.89
70437;BME280;57877;39.750;-104.894;2023-05-11T09:55:51;83226.91;;;9.70;53.32
70437;BME280;57877;39.750;-104.894;2023-05-11T09:58:12;83241.52;;;10.27;52.49
70437;BME280;57877;39.750;-104.894;2023-05-11T10:03:04;83271.76;;;10.16;51.83
70437;BME280;57877;39.750;-104.894;2023-05-11T10:05:29;83269.76;;;9.94;52.64
70437;BME280;57877;39.750;-104.894;2023-05-11T10:07:57;83274.24;;;10.00;52.69
70437;BME280;57877;39.750;-104.894;2023-05-11T10:10:18;83273.05;;;10.04;52.86
70437;BME280;57877;39.750;-104.894;2023-05-11T10:12:43;83264.86;;;9.99;53.13
70437;BME280;57877;39.750;-104.894;2023-05-11T10:15:09;83263.24;;;10.17;52.99
70437;BME280;57877;39.750;-104.894;2023-05-11T10:17:34;83275.51;;;10.15;53.71
70437;BME280;57877;39.750;-104.894;2023-05-11T10:19:59;83289.50;;;10.00;54.13
70437;BME280;57877;39.750;-104.894;2023-05-11T10:22:24;83298.82;;;10.31;53.63
70437;BME280;57877;39.750;-104.894;2023-05-11T10:24:49;83302.57;;;10.30;53.60
70437;BME280;57877;39.750;-104.894;2023-05-11T10:27:13;83311.49;;;10.19;53.50
70437;BME280;57877;39.750;-104.894;2023-05-11T10:29:38;83309.96;;;10.59;52.71
70437;BME280;57877;39.750;-104.894;2023-05-11T10:32:04;83304.18;;;10.25;53.11
70437;BME280;57877;39.750;-104.894;2023-05-11T10:34:28;83291.86;;;9.98;53.17
70437;BME280;57877;39.750;-104.894;2023-05-11T10:36:54;83281.43;;;10.58;52.94
70437;BME280;57877;39.750;-104.894;2023-05-11T10:39:18;83274.70;;;10.68;52.82
70437;BME280;57877;39.750;-104.894;2023-05-11T10:41:50;83282.59;;;10.85;52.52
70437;BME280;57877;39.750;-104.894;2023-05-11T10:46:44;83294.96;;;10.49;52.80
70437;BME280;57877;39.750;-104.894;2023-05-11T10:49:07;83293.31;;;10.29;52.74
70437;BME280;57877;39.750;-104.894;2023-05-11T10:51:36;83301.42;;;10.62;52.36
70437;BME280;57877;39.750;-104.894;2023-05-11T10:53:56;83311.10;;;10.40;52.91
70437;BME280;57877;39.750;-104.894;2023-05-11T10:56:25;83311.96;;;9.99;53.82
70437;BME280;57877;39.750;-104.894;2023-05-11T10:58:58;83301.04;;;9.93;53.57
70437;BME280;57877;39.750;-104.894;2023-05-11T11:01:22;83299.92;;;10.17;53.83
70437;BME280;57877;39.750;-104.894;2023-05-11T11:03:29;83293.20;;;10.45;53.26
70437;BME280;57877;39.750;-104.894;2023-05-11T11:05:54;83286.39;;;10.63;53.25
70437;BME280;57877;39.750;-104.894;2023-05-11T11:08:19;83276.03;;;10.53;52.57
70437;BME280;57877;39.750;-104.894;2023-05-11T11:10:45;83273.49;;;10.70;53.08
70437;BME280;57877;39.750;-104.894;2023-05-11T11:13:11;83268.62;;;10.02;53.44
70437;BME280;57877;39.750;-104.894;2023-05-11T11:22:51;83224.18;;;9.18;57.30
70437;BME280;57877;39.750;-104.894;2023-05-11T11:32:30;83246.78;;;9.91;55.30
70437;BME280;57877;39.750;-104.894;2023-05-11T11:34:56;83237.09;;;9.49;55.98
70437;BME280;57877;39.750;-104.894;2023-05-11T11:37:20;83225.00;;;9.72;55.41
70437;BME280;57877;39.750;-104.894;2023-05-11T11:39:49;83223.32;;;9.52;55.45
70437;BME280;57877;39.750;-104.894;2023-05-11T11:42:12;83222.14;;;9.75;54.26
70437;BME280;57877;39.750;-104.894;2023-05-11T11:44:36;83217.59;;;9.73;54.61
70437;BME280;57877;39.750;-104.894;2023-05-11T11:49:26;83205.54;;;9.06;55.79
70437;BME280;57877;39.750;-104.894;2023-05-11T11:51:51;83200.33;;;9.53;54.86
70437;BME280;57877;39.750;-104.894;2023-05-11T11:56:42;83211.13;;;9.90;54.67
70437;BME280;57877;39.750;-104.894;2023-05-11T11:59:06;83215.26;;;9.82;54.62
70437;BME280;57877;39.750;-104.894;2023-05-11T12:01:36;83217.17;;;9.34;55.30
70437;BME280;57877;39.750;-104.894;2023-05-11T12:06:21;83223.27;;;9.34;55.83
70437;BME280;57877;39.750;-104.894;2023-05-11T12:08:47;83230.41;;;9.77;55.16
70437;BME280;57877;39.750;-104.894;2023-05-11T12:11:16;83232.79;;;9.57;54.63
70437;BME280;57877;39.750;-104.894;2023-05-11T12:13:36;83239.96;;;9.48;54.58
70437;BME280;57877;39.750;-104.894;2023-05-11T12:16:07;83243.82;;;8.59;55.79
70437;BME280;57877;39.750;-104.894;2023-05-11T12:18:26;83233.62;;;8.95;55.97
70437;BME280;57877;39.750;-104.894;2023-05-11T12:20:51;83222.55;;;7.52;58.90
70437;BME280;57877;39.750;-104.894;2023-05-11T12:23:17;83217.71;;;7.81;58.65
70437;BME280;57877;39.750;-104.894;2023-05-11T12:25:42;83218.36;;;8.41;56.97
70437;BME280;57877;39.750;-104.894;2023-05-11T12:28:07;83215.17;;;8.97;55.33
70437;BME280;57877;39.750;-104.894;2023-05-11T12:30:33;83214.70;;;8.36;56.84
70437;BME280;57877;39.750;-104.894;2023-05-11T12:32:58;83211.79;;;8.70;56.14
70437;BME280;57877;39.750;-104.894;2023-05-11T12:35:23;83220.38;;;8.88;56.12
70437;BME280;57877;39.750;-104.894;2023-05-11T12:37:47;83226.33;;;8.90;55.98
70437;BME280;57877;39.750;-104.894;2023-05-11T12:40:13;83221.46;;;9.05;55.64
70437;BME280;57877;39.750;-104.894;2023-05-11T12:42:37;83209.56;;;8.10;57.46
70437;BME280;57877;39.750;-104.894;2023-05-11T12:45:03;83198.32;;;7.83;58.18
70437;BME280;57877;39.750;-104.894;2023-05-11T12:47:27;83189.84;;;6.79;60.73
70437;BME280;57877;39.750;-104.894;2023-05-11T12:49:53;83183.78;;;7.36;60.82
70437;BME280;57877;39.750;-104.894;2023-05-11T12:52:18;83180.22;;;6.66;61.44
70437;BME280;57877;39.750;-104.894;2023-05-11T12:54:48;83186.44;;;6.41;62.71
70437;BME280;57877;39.750;-104.894;2023-05-11T12:57:21;83192.78;;;7.56;59.40